Terminal Aerodrome Forecast
Issued by NWS Twin Cities, MN

Home | Current Version | Previous Version | Graphics & Text | Print | Product List | Glossary On
Versions: 1 2 3 4 5 6 7 8 9 10 11 12 13 14 15 16 17 18
194
FTUS43 KMPX 151139
TAFEAU
TAF
KEAU 151139Z 1512/1612 23005KT 1SM BR OVC003
     FM151300 28010KT 4SM BR OVC005
     FM151700 30015G23KT P6SM OVC015
     FM160600 33008KT P6SM OVC018=

USA.gov is the U.S. government's official web portal to all federal, state and local government web resources and services.